Impacts METAR Board
IDs:

KJFK - New York/Kennedy Int, NY, US

Updated at: 1100 UTC 09 Jul 2020
Potential Impact None Slight Moderate High
Time 08/23Z 09/00Z 09/01Z 09/02Z 09/03Z 09/04Z 09/05Z 09/06Z 09/07Z 09/08Z 09/09Z 09/10Z 09/11Z
Temp78 77 76 76 76 76 75 75 74 73 73 73 76
Dewpt75 74 74 74 73 73 74 73 72 71 72 72 74
Altim29.96 29.96 29.96 29.97 29.98 29.98 29.98 29.97 29.97 29.98 29.98 30.00 30.01
VIS10 10 10 10 10 10 10 10 10 10 10 10 10
CIG140 170 -- 250 250 250 250 250 250 250 -- -- --
CoverBKNBKNSCTBKNBKNBKNBKNBKNBKNBKNSCTSCTSCT
FltCatVFRVFRVFRVFRVFRVFRVFRVFRVFRVFRVFRVFRVFR
WX--------------------------
WDir1901901901901801902002002102402301900
WSpd11 9 11 12 11 14 8 6 4 4 4 4 0
WGst-- -- -- -- -- -- -- -- -- -- -- -- --
Raw hourly METARs
KJFK 082251Z 19011KT 10SM FEW009 FEW049 BKN140 BKN200 BKN250 26/24 A2996 RMK AO2 RAE16 SLP144 P0001 T02560239
KJFK 082351Z 19009KT 10SM FEW009 SCT046 BKN170 BKN250 25/23 A2996 RMK AO2 SLP146 60002 T02500233 10289 20250 55008
KJFK 090051Z 19011KT 10SM FEW007 FEW046 FEW100 SCT180 BKN230 24/23 A2996 RMK AO2 SLP145 T02440233
KJFK 090151Z 19012KT 10SM FEW007 FEW046 BKN250 24/23 A2997 RMK AO2 SLP150 T02440233
KJFK 090251Z 18011KT 10SM FEW010 FEW050 SCT150 BKN250 24/23 A2998 RMK AO2 SLP152 T02440228 53006
KJFK 090351Z 19014KT 10SM FEW010 FEW050 SCT200 BKN250 24/23 A2998 RMK AO2 SLP150 T02440228
KJFK 090451Z 20008KT 10SM FEW010 SCT200 BKN250 24/23 A2998 RMK AO2 SLP152 T02390233 402890233
KJFK 090551Z 20006KT 10SM FEW200 BKN250 24/23 A2997 RMK AO2 SLP149 T02390228 10250 20239 58003
KJFK 090651Z 21004KT 10SM FEW200 BKN250 23/22 A2997 RMK AO2 SLP149 T02330222
KJFK 090751Z 24004KT 10SM FEW200 BKN250 23/22 A2998 RMK AO2 SLP150 T02280217
KJFK 090851Z 23004KT 10SM FEW200 SCT250 23/22 A2998 RMK AO2 SLP153 T02280222 53004
KJFK 090951Z 19004KT 10SM FEW015 FEW180 SCT250 23/22 A3000 RMK AO2 SLP157 T02280222
KJFK 091051Z 00000KT 10SM SCT010 SCT040 SCT250 24/23 A3001 RMK AO2 SLP161 T02440233



Page loaded:  11:27 UTC  |   04:27 AM Pacific  |   05:27 AM Mountain  |   06:27 AM Central  |   07:27 AM Eastern

 

ADVISORIES

FORECASTS

FORECASTS

OBSERVATIONS

USER TOOLS

ABOUT US